August 14, 2022

Time Code Weather Temp. Visibility Ceiling Wind METAR/SPECI
07:20
V
20 °C 10 km+ - Var Var 2 kt METAR EGLL 140620Z AUTO VRB02KT 9999 NCD 20/13 Q1009 NOSIG
06:50
V
19 °C 10 km+ - 360° 360° 3 kt METAR EGLL 140550Z AUTO 36003KT 9999 NCD 19/12 Q1009 NOSIG
06:20
V
19 °C 10 km+ - Var Var 2 kt METAR EGLL 140520Z AUTO VRB02KT 9999 NCD 19/12 Q1009 NOSIG
05:50
V
19 °C 10 km+ - 010° 010° 3 kt METAR EGLL 140450Z AUTO 01003KT 9999 NCD 19/12 Q1009 NOSIG
05:20
V
19 °C 10 km+ - 010° 010° 3 kt METAR EGLL 140420Z AUTO 01003KT 9999 NCD 19/13 Q1009 NOSIG
04:50
V
20 °C 10 km+ - Var Var 2 kt METAR EGLL 140350Z AUTO VRB02KT 9999 NCD 20/12 Q1009 NOSIG
04:20
V
20 °C 10 km+ - 030° 030° 3 kt METAR EGLL 140320Z AUTO 03003KT 9999 NCD 20/12 Q1009 NOSIG
03:50
V
20 °C 10 km+ - 010° 010° 3 kt METAR EGLL 140250Z AUTO 01003KT 9999 NCD 20/12 Q1009 NOSIG
03:20
V
20 °C 10 km+ - 360° 360° 3 kt METAR EGLL 140220Z AUTO 36003KT 9999 NCD 20/12 Q1010 NOSIG
02:50
V
21 °C 10 km+ - 010° 010° 3 kt METAR EGLL 140150Z AUTO 01003KT 9999 NCD 21/12 Q1010 NOSIG
02:20
V
21 °C 10 km+ - 040° 040° 2 kt METAR EGLL 140120Z AUTO 04002KT 9999 NCD 21/11 Q1010
01:50
V
22 °C 10 km+ - 040° 040° 4 kt METAR EGLL 140050Z AUTO 04004KT 9999 NCD 22/10 Q1010 NOSIG
01:20
V
23 °C 10 km+ - 050° 050° 4 kt METAR EGLL 140020Z AUTO 05004KT 9999 NCD 23/10 Q1011
00:50
V
23 °C 10 km+ - 030° 030° 3 kt METAR EGLL 132350Z AUTO 03003KT 9999 NCD 23/10 Q1011 NOSIG
00:20
V
23 °C 10 km+ - 050° 050° 3 kt METAR EGLL 132320Z AUTO 05003KT 020V090 9999 NCD 23/10 Q1011 NOSIG

August 13, 2022

Time Code Weather Temp. Visibility Ceiling Wind METAR/SPECI
23:50
V
23 °C 10 km+ - 070° 070° 4 kt METAR EGLL 132250Z AUTO 07004KT 9999 NCD 23/10 Q1011 NOSIG
23:20
V
23 °C 10 km+ - 080° 080° 4 kt METAR EGLL 132220Z AUTO 08004KT 9999 NCD 23/09 Q1011
22:50
V
23 °C 10 km+ - 090° 090° 6 kt METAR EGLL 132150Z AUTO 09006KT 9999 NCD 23/09 Q1011 NOSIG
22:20
V
24 °C 10 km+ - 090° 090° 6 kt METAR EGLL 132120Z AUTO 09006KT 9999 NCD 24/09 Q1012
21:50
V
25 °C 10 km+ - 090° 090° 6 kt METAR EGLL 132050Z AUTO 09006KT 9999 NCD 25/10 Q1012
21:20
V
26 °C 10 km+ - 090° 090° 8 kt METAR EGLL 132020Z AUTO 09008KT 9999 NCD 26/10 Q1012
20:50
V
27 °C 10 km+ - 090° 090° 6 kt METAR EGLL 131950Z AUTO 09006KT 9999 NCD 27/07 Q1011 NOSIG
20:20
V
29 °C 10 km+ - 150° 150° 6 kt METAR EGLL 131920Z AUTO 15006KT 9999 NCD 29/07 Q1011 NOSIG
19:50
V
30 °C 10 km+ - 160° 160° 8 kt METAR EGLL 131850Z AUTO 16008KT 9999 NCD 30/07 Q1011 NOSIG
19:20
V
31 °C 10 km+ - 170° 170° 10 kt METAR EGLL 131820Z AUTO 17010KT 9999 NCD 31/06 Q1011
18:50
V
32 °C 10 km+ - 140° 140° 9 kt METAR EGLL 131750Z AUTO 14009KT 9999 NCD 32/06 Q1011 NOSIG
18:20
V
32 °C 10 km+ - 150° 150° 8 kt METAR EGLL 131720Z AUTO 15008KT 120V200 9999 NCD 32/07 Q1011
17:50
V
32 °C 10 km+ - 170° 170° 10 kt METAR EGLL 131650Z AUTO 17010KT 130V190 9999 NCD 32/07 Q1011
17:20
V
33 °C 10 km+ - 140° 140° 10 kt METAR EGLL 131620Z AUTO 14010KT 9999 NCD 33/07 Q1011 NOSIG
16:50
V
33 °C 10 km+ - 170° 170° 6 kt METAR EGLL 131550Z AUTO 17006KT 130V220 9999 NCD 33/08 Q1012
16:20
V
33 °C 10 km+ - 170° 170° 6 kt METAR EGLL 131520Z AUTO 17006KT 140V220 9999 NCD 33/10 Q1012 NOSIG
15:50
V
33 °C 10 km+ - 190° 190° 8 kt METAR EGLL 131450Z AUTO 19008KT 140V240 9999 NCD 33/11 Q1012 NOSIG
15:20
V
33 °C 10 km+ - 100° 100° 6 kt METAR EGLL 131420Z AUTO 10006KT 030V130 9999 NCD 33/12 Q1012
14:50
V
33 °C 10 km+ - 140° 140° 5 kt METAR EGLL 131350Z AUTO 14005KT 040V190 9999 NCD 33/11 Q1013 NOSIG
14:20
V
32 °C 10 km+ - Var Var 3 kt METAR EGLL 131320Z AUTO VRB03KT 9999 NCD 32/11 Q1013
13:50
V
32 °C 10 km+ - 050° 050° 4 kt METAR EGLL 131250Z AUTO 05004KT 330V140 9999 NCD 32/11 Q1013 NOSIG
13:20
V
32 °C 10 km+ - 120° 120° 8 kt METAR EGLL 131220Z AUTO 12008KT 060V160 9999 NCD 32/11 Q1014 NOSIG
12:50
V
31 °C 10 km+ - 080° 080° 6 kt METAR EGLL 131150Z AUTO 08006KT 040V120 9999 NCD 31/12 Q1014 NOSIG
12:20
V
30 °C 10 km+ - 070° 070° 7 kt METAR EGLL 131120Z AUTO 07007KT 020V120 9999 NCD 30/12 Q1014 NOSIG
11:50
V
29 °C 10 km+ - 090° 090° 8 kt METAR EGLL 131050Z AUTO 09008KT 050V120 9999 NCD 29/12 Q1014 NOSIG
11:20
V
29 °C 10 km+ - 060° 060° 6 kt METAR EGLL 131020Z AUTO 06006KT 360V110 9999 NCD 29/12 Q1014
10:50
V
27 °C 10 km+ - 060° 060° 5 kt METAR EGLL 130950Z AUTO 06005KT 330V090 9999 NCD 27/13 Q1015 NOSIG
10:20
V
26 °C 10 km+ - 060° 060° 5 kt METAR EGLL 130920Z AUTO 06005KT 360V150 9999 NCD 26/14 Q1015
09:50
V
25 °C 10 km+ - 050° 050° 4 kt METAR EGLL 130850Z AUTO 05004KT 350V140 9999 NCD 25/15 Q1015
09:20
V
24 °C 10 km+ - 060° 060° 4 kt METAR EGLL 130820Z AUTO 06004KT 360V090 9999 NCD 24/15 Q1015
08:50
V
23 °C 10 km+ - 040° 040° 5 kt METAR EGLL 130750Z AUTO 04005KT 010V070 9999 NCD 23/15 Q1015 NOSIG
08:20
V
22 °C 10 km+ - 040° 040° 6 kt METAR EGLL 130720Z AUTO 04006KT 360V080 9999 NCD 22/14 Q1015 NOSIG
07:50
V
21 °C 10 km+ - 040° 040° 6 kt METAR EGLL 130650Z AUTO 04006KT 360V080 9999 NCD 21/14 Q1015 NOSIG
07:20
V
20 °C 10 km+ - 030° 030° 4 kt METAR EGLL 130620Z AUTO 03004KT 9999 NCD 20/14 Q1015
06:50
V
19 °C 10 km+ - 030° 030° 3 kt METAR EGLL 130550Z AUTO 03003KT 330V060 9999 NCD 19/14 Q1015 NOSIG
06:20
V
19 °C 10 km+ - Var Var 2 kt METAR EGLL 130520Z AUTO VRB02KT 9999 NCD 19/13 Q1015
05:50
V
19 °C 10 km+ - 040° 040° 3 kt METAR EGLL 130450Z AUTO 04003KT 9999 NCD 19/13 Q1015 NOSIG
05:20
V
19 °C 10 km+ - Var Var 2 kt METAR EGLL 130420Z AUTO VRB02KT 9999 NCD 19/13 Q1015
04:50
V
19 °C 10 km+ - Var Var 2 kt METAR EGLL 130350Z AUTO VRB02KT 9999 NCD 19/13 Q1015
04:20
V
20 °C 10 km+ - 360° 360° 3 kt METAR EGLL 130320Z AUTO 36003KT 9999 NCD 20/12 Q1015
03:50
V
20 °C 10 km+ - 010° 010° 2 kt METAR EGLL 130250Z AUTO 01002KT 9999 NCD 20/12 Q1015 NOSIG
03:20
V
20 °C 10 km+ - 030° 030° 3 kt METAR EGLL 130220Z AUTO 03003KT 350V060 9999 NCD 20/12 Q1015 NOSIG
02:50
V
21 °C 10 km+ - 040° 040° 4 kt METAR EGLL 130150Z AUTO 04004KT 9999 NCD 21/12 Q1016 NOSIG
02:20
V
22 °C 10 km+ - 040° 040° 5 kt METAR EGLL 130120Z AUTO 04005KT 9999 NCD 22/11 Q1016
01:50
V
22 °C 10 km+ - 040° 040° 5 kt METAR EGLL 130050Z AUTO 04005KT 9999 NCD 22/12 Q1016 NOSIG
01:20
V
22 °C 10 km+ - 040° 040° 4 kt METAR EGLL 130020Z AUTO 04004KT 9999 NCD 22/11 Q1016 NOSIG
00:50
V
23 °C 10 km+ - 040° 040° 4 kt METAR EGLL 122350Z AUTO 04004KT 9999 NCD 23/10 Q1016 NOSIG
00:20
V
23 °C 10 km+ - 070° 070° 5 kt METAR EGLL 122320Z AUTO 07005KT 9999 NCD 23/11 Q1017 NOSIG

August 12, 2022

Time Code Weather Temp. Visibility Ceiling Wind METAR/SPECI
23:50
V
23 °C 10 km+ - 070° 070° 5 kt METAR EGLL 122250Z AUTO 07005KT 9999 NCD 23/11 Q1017
23:20
V
24 °C 10 km+ - 080° 080° 5 kt METAR EGLL 122220Z AUTO 08005KT 9999 NCD 24/10 Q1017 NOSIG
22:50
V
23 °C 10 km+ - 070° 070° 6 kt METAR EGLL 122150Z AUTO 07006KT 9999 NCD 23/10 Q1016 NOSIG
22:20
V
25 °C 10 km+ - 070° 070° 5 kt METAR EGLL 122120Z AUTO 07005KT 9999 NCD 25/10 Q1016 NOSIG
21:50
V
24 °C 10 km+ - 090° 090° 7 kt METAR EGLL 122050Z AUTO 09007KT 9999 NCD 24/10 Q1016 NOSIG
21:20
V
24 °C 10 km+ - 090° 090° 7 kt METAR EGLL 122020Z AUTO 09007KT 9999 NCD 24/10 Q1016
20:50
V
25 °C 10 km+ - 100° 100° 7 kt METAR EGLL 121950Z AUTO 10007KT 9999 NCD 25/09 Q1016 NOSIG
20:20
V
27 °C 10 km+ - 100° 100° 10 kt METAR EGLL 121920Z AUTO 10010KT 9999 NCD 27/09 Q1016 NOSIG
19:50
V
28 °C 10 km+ - 090° 090° 10 kt METAR EGLL 121850Z AUTO 09010KT 9999 NCD 28/09 Q1016 NOSIG
19:20
V
29 °C 10 km+ - 100° 100° 9 kt METAR EGLL 121820Z AUTO 10009KT 9999 NCD 29/09 Q1016
18:50
V
30 °C 10 km+ - 100° 100° 11 kt METAR EGLL 121750Z AUTO 10011KT 9999 NCD 30/09 Q1016 NOSIG
18:20
V
31 °C 10 km+ - 110° 110° 11 kt METAR EGLL 121720Z AUTO 11011KT 9999 NCD 31/09 Q1016 NOSIG
17:50
V
31 °C 10 km+ - 110° 110° 11 kt METAR EGLL 121650Z AUTO 11011KT 9999 NCD 31/09 Q1016 NOSIG
17:20
V
31 °C 10 km+ - 100° 100° 12 kt METAR EGLL 121620Z AUTO 10012KT 9999 NCD 31/09 Q1016
16:50
V
32 °C 10 km+ - 100° 100° 11 kt METAR EGLL 121550Z AUTO 10011KT 060V130 9999 NCD 32/09 Q1016 NOSIG
16:20
V
32 °C 10 km+ - 110° 110° 11 kt METAR EGLL 121520Z AUTO 11011KT 040V140 9999 NCD 32/09 Q1016
15:50
V
32 °C 10 km+ - 080° 080° 10 kt METAR EGLL 121450Z AUTO 08010KT 050V110 9999 NCD 32/09 Q1016 NOSIG
15:20
V
33 °C 10 km+ - 100° 100° 9 kt METAR EGLL 121420Z AUTO 10009KT 060V140 9999 NCD 33/09 Q1017
14:50
V
32 °C 10 km+ - 100° 100° 11 kt METAR EGLL 121350Z AUTO 10011KT 9999 NCD 32/09 Q1017 NOSIG
14:20
V
32 °C 10 km+ - 090° 090° 10 kt METAR EGLL 121320Z AUTO 09010KT 050V120 9999 NCD 32/09 Q1017 NOSIG
13:50
V
32 °C 10 km+ - 120° 120° 11 kt METAR EGLL 121250Z AUTO 12011KT 9999 NCD 32/10 Q1017 NOSIG
13:20
V
32 °C 10 km+ - 080° 080° 9 kt METAR EGLL 121220Z AUTO 08009KT 050V130 9999 NCD 32/10 Q1017 NOSIG
12:50
V
31 °C 10 km+ - 080° 080° 11 kt METAR EGLL 121150Z AUTO 08011KT 030V110 9999 NCD 31/09 Q1018
12:20
V
31 °C 10 km+ - 090° 090° 9 kt METAR EGLL 121120Z AUTO 09009KT 050V130 9999 NCD 31/11 Q1018
11:50
V
30 °C 10 km+ - 080° 080° 10 kt METAR EGLL 121050Z AUTO 08010KT 9999 NCD 30/11 Q1018 NOSIG
11:20
V
29 °C 10 km+ - 070° 070° 7 kt METAR EGLL 121020Z AUTO 07007KT 9999 NCD 29/11 Q1018 NOSIG
10:50
V
28 °C 10 km+ - 080° 080° 5 kt METAR EGLL 120950Z AUTO 08005KT 320V120 9999 NCD 28/13 Q1019 NOSIG
10:20
V
27 °C 10 km+ - 060° 060° 4 kt METAR EGLL 120920Z AUTO 06004KT 360V100 9999 NCD 27/14 Q1019
09:50
V
25 °C 10 km+ - 050° 050° 3 kt METAR EGLL 120850Z AUTO 05003KT 360V120 9999 NCD 25/15 Q1019
09:20
V
25 °C 10 km+ - 070° 070° 4 kt METAR EGLL 120820Z AUTO 07004KT 360V100 9999 NCD 25/15 Q1019 NOSIG
08:50
V
23 °C 10 km+ - 060° 060° 4 kt METAR EGLL 120750Z AUTO 06004KT 010V090 9999 NCD 23/15 Q1019 NOSIG
08:20
V
22 °C 10 km+ - 060° 060° 5 kt METAR EGLL 120720Z AUTO 06005KT 9999 NCD 22/14 Q1019
07:50
V
21 °C 10 km+ - 060° 060° 5 kt METAR EGLL 120650Z AUTO 06005KT 9999 NCD 21/14 Q1019 NOSIG
07:20
V
20 °C 10 km+ - 040° 040° 4 kt METAR EGLL 120620Z AUTO 04004KT 010V080 9999 NCD 20/13 Q1019 NOSIG
06:50
V
19 °C 10 km+ - 020° 020° 3 kt METAR EGLL 120550Z AUTO 02003KT 310V060 9999 NCD 19/13 Q1019 NOSIG
06:20
V
18 °C 10 km+ - 040° 040° 4 kt METAR EGLL 120520Z AUTO 04004KT 9999 NCD 18/12 Q1019 NOSIG
Older data

We and third parties follow your internet behavior on our website with cookies. If you continue, we assume you agree with our cookie policy. Learn more